LOWS/SZG METAR and TAF weather

Enter ICAO airport designator
Station Type Date Time Source
LOWS METAR 2021/10/20 06:50 UTC NOAA

LOWS 200650Z 14013KT CAVOK 13/07 Q1018 NOSIG


Station Type Date Time Source
LOWS Decoded METAR 2021/10/20 06:50 UTC NOAA

Salzburg-Flughafen, Austria (LOWS) 47-48N 013-00E 450M
Oct 20, 2021 - 02:50 AM EDT / 2021.10.20 0650 UTC
Wind: from the SE (140 degrees) at 15 MPH (13 KT):0
Visibility: greater than 7 mile(s):0
Temperature: 55 F (13 C)
Dew Point: 44 F (7 C)
Relative Humidity: 66%
Pressure (altimeter): 30.06 in. Hg (1018 hPa)
ob: LOWS 200650Z 14013KT CAVOK 13/07 Q1018 NOSIG
cycle: 7

Station Type Date Time Source
LOWS TAF 2021/10/20 06:21 UTC NOAA

TAF LOWS 200515Z 2006/2106 15007KT CAVOK TX20/2013Z TN10/2106Z
BECMG 2008/2010 34005KT
BECMG 2016/2018 15008KT

Example: see airport list